Time;durP1;ratioP1;P1;durP2;ratioP2;P2;SDS_P1;SDS_P2;PMS_P1;PMS_P2;Temp;Humidity;BMP_temperature;BMP_pressure;BME280_temperature;BME280_humidity;BME280_pressure;Samples;Min_cycle;Max_cycle;Signal;HPM_P1;HPM_P2
2021/09/19 00:00:23;;;;;;;3.38;2.58;;;;;;;17.58;87.13;99645.41;4918020;29;20048;-79
2021/09/19 00:02:50;;;;;;;11.18;2.60;;;;;;;17.46;89.18;99642.03;4918065;29;20070;-78
2021/09/19 00:05:18;;;;;;;9.10;2.80;;;;;;;17.60;88.06;99634.72;4918040;29;20132;-79
2021/09/19 00:07:44;;;;;;;3.20;2.17;;;;;;;17.65;88.81;99633.34;4917578;29;20412;-79
2021/09/19 00:10:14;;;;;;;6.05;2.75;;;;;;;17.76;86.24;99638.50;4917650;29;20129;-79
2021/09/19 00:12:44;;;;;;;6.90;2.50;;;;;;;17.87;86.67;99628.81;4916816;29;20056;-80
2021/09/19 00:15:13;;;;;;;5.22;3.10;;;;;;;17.90;86.20;99632.00;4917565;29;20036;-80
2021/09/19 00:17:40;;;;;;;10.55;3.35;;;;;;;17.86;87.72;99637.69;4917444;29;20403;-80
2021/09/19 00:20:08;;;;;;;3.05;2.80;;;;;;;17.73;89.22;99641.41;4917558;29;20447;-81
2021/09/19 00:22:35;;;;;;;7.28;3.53;;;;;;;17.55;89.99;99635.94;4917450;29;20407;-80
2021/09/19 00:25:04;;;;;;;10.10;2.67;;;;;;;17.37;91.91;99637.59;4917373;29;20072;-81
2021/09/19 00:27:31;;;;;;;5.47;3.00;;;;;;;17.40;92.53;99641.75;4917179;29;20047;-81
2021/09/19 00:29:59;;;;;;;8.57;3.08;;;;;;;17.38;92.75;99639.25;4917349;29;20092;-81
2021/09/19 00:32:25;;;;;;;3.78;3.28;;;;;;;17.36;94.23;99640.34;4915653;29;20129;-79
2021/09/19 00:34:52;;;;;;;7.45;3.00;;;;;;;17.38;93.77;99635.78;4910126;29;20090;-80
2021/09/19 00:37:19;;;;;;;6.20;2.88;;;;;;;17.39;93.52;99640.06;4912401;29;20048;-80
2021/09/19 00:39:46;;;;;;;7.05;3.38;;;;;;;17.39;93.15;99640.06;4917504;29;20048;-81
2021/09/19 00:42:13;;;;;;;7.38;3.20;;;;;;;17.34;92.91;99643.09;4918072;29;20056;-80
2021/09/19 00:44:40;;;;;;;9.15;2.97;;;;;;;17.34;92.71;99647.53;4917118;29;20061;-80
2021/09/19 00:47:07;;;;;;;8.40;2.75;;;;;;;17.36;91.22;99645.59;4917974;29;20068;-80
2021/09/19 00:49:36;;;;;;;3.78;2.78;;;;;;;17.39;90.83;99654.06;4921064;29;20044;-81
2021/09/19 00:52:04;;;;;;;5.35;2.45;;;;;;;17.29;94.36;99655.84;4923678;29;20056;-79
2021/09/19 00:54:38;;;;;;;6.40;3.25;;;;;;;17.29;94.37;99655.84;4925412;29;20512;-80
2021/09/19 00:57:09;;;;;;;;;;;;;;;17.06;96.69;99657.84;4922454;29;20071;-79
2021/09/19 00:59:38;;;;;;;5.22;2.67;;;;;;;16.96;97.70;99654.34;4921895;28;19923;-80
2021/09/19 01:02:09;;;;;;;6.10;3.25;;;;;;;17.00;97.80;99651.31;4926018;29;20063;-80
2021/09/19 01:04:42;;;;;;;3.92;2.55;;;;;;;16.97;97.93;99659.47;4930818;29;20060;-80
2021/09/19 01:07:09;;;;;;;5.45;3.60;;;;;;;16.97;97.50;99653.38;4928526;29;20414;-80
2021/09/19 01:09:36;;;;;;;3.72;3.38;;;;;;;16.96;97.86;99651.72;4916435;29;20056;-80
2021/09/19 01:12:04;;;;;;;13.85;3.38;;;;;;;16.82;100.00;99652.03;4916280;29;20495;-80
2021/09/19 01:14:31;;;;;;;4.53;3.10;;;;;;;16.70;100.00;99652.09;4910590;29;20040;-80
2021/09/19 01:16:59;;;;;;;3.95;2.95;;;;;;;16.74;99.13;99656.19;4916731;29;20403;-80
2021/09/19 01:19:26;;;;;;;7.85;2.78;;;;;;;16.68;99.92;99661.94;4916903;29;20036;-80
2021/09/19 01:21:53;;;;;;;14.07;3.63;;;;;;;16.61;99.95;99670.47;4916128;29;20044;-79
2021/09/19 01:24:21;;;;;;;8.95;2.55;;;;;;;16.46;100.00;99678.69;4918686;29;20076;-79
2021/09/19 01:26:47;;;;;;;4.53;2.13;;;;;;;16.44;99.49;99669.25;4922757;29;20160;-79
2021/09/19 01:29:14;;;;;;;3.30;2.22;;;;;;;16.35;99.40;99667.38;4922488;29;20040;-78
2021/09/19 01:31:41;;;;;;;9.35;2.78;;;;;;;16.28;99.55;99660.97;4923089;29;20389;-78
2021/09/19 01:34:08;;;;;;;7.63;2.70;;;;;;;16.31;98.12;99652.81;4922352;29;20091;-79
2021/09/19 01:36:36;;;;;;;7.57;2.33;;;;;;;16.29;96.87;99644.22;4922961;29;20048;-78
2021/09/19 01:39:08;;;;;;;7.07;2.28;;;;;;;16.19;98.69;99633.63;4922423;29;20048;-79
2021/09/19 01:41:36;;;;;;;7.22;2.30;;;;;;;15.96;99.91;99623.22;4922611;29;20074;-79
2021/09/19 01:44:05;;;;;;;3.78;2.40;;;;;;;15.99;100.00;99627.41;4922389;29;20048;-78
2021/09/19 01:46:33;;;;;;;9.18;2.55;;;;;;;15.92;100.00;99623.59;4922643;29;20448;-79
2021/09/19 01:48:59;;;;;;;4.07;2.45;;;;;;;15.88;100.00;99625.66;4922674;29;20444;-79
2021/09/19 01:51:26;;;;;;;8.77;2.58;;;;;;;15.95;100.00;99631.22;4922304;29;20048;-79
2021/09/19 01:53:53;;;;;;;6.20;2.42;;;;;;;15.91;100.00;99619.28;4922346;29;20423;-79
2021/09/19 01:56:21;;;;;;;6.80;2.38;;;;;;;15.91;100.00;99619.28;4923588;29;20048;-79
2021/09/19 01:58:52;;;;;;;3.03;2.35;;;;;;;15.86;98.71;99616.22;4927908;29;20048;-78
2021/09/19 02:01:22;;;;;;;3.33;2.47;;;;;;;15.86;96.75;99617.03;4925214;29;20048;-77
2021/09/19 02:03:53;;;;;;;5.90;2.00;;;;;;;16.02;96.29;99616.63;4903739;29;20045;-79
2021/09/19 02:06:21;;;;;;;4.88;2.45;;;;;;;16.02;96.67;99613.97;4918617;29;20048;-79
2021/09/19 02:08:49;;;;;;;10.65;2.90;;;;;;;16.13;96.29;99618.34;4922455;29;20048;-79
2021/09/19 02:11:16;;;;;;;22.10;4.47;;;;;;;16.12;95.29;99607.00;4922376;29;20104;-80
2021/09/19 02:13:44;;;;;;;5.57;2.47;;;;;;;16.09;94.07;99609.06;4922662;29;20040;-80
2021/09/19 02:16:12;;;;;;;9.43;3.05;;;;;;;16.00;94.04;99617.72;4920846;29;20099;-81
2021/09/19 02:18:39;;;;;;;7.10;3.10;;;;;;;15.90;95.07;99607.13;4922175;29;20082;-80
2021/09/19 02:21:08;;;;;;;7.20;2.35;;;;;;;15.82;95.38;99604.28;4922369;29;20047;-78
2021/09/19 02:23:35;;;;;;;6.40;3.53;;;;;;;15.67;97.25;99607.22;4921465;29;20419;-78
2021/09/19 02:26:02;;;;;;;3.53;2.33;;;;;;;15.81;95.38;99598.19;4932659;29;20055;-79
2021/09/19 02:28:29;;;;;;;10.27;4.28;;;;;;;15.87;95.64;99592.44;4920861;29;20123;-79
2021/09/19 02:30:56;;;;;;;7.95;4.60;;;;;;;15.87;96.42;99591.59;4923539;29;20059;-80
2021/09/19 02:33:23;;;;;;;4.72;3.28;;;;;;;15.75;96.18;99592.59;4923248;29;20048;-79
2021/09/19 02:35:49;;;;;;;6.22;2.33;;;;;;;15.56;96.30;99588.00;4920288;29;20044;-80
2021/09/19 02:38:16;;;;;;;2.45;2.25;;;;;;;15.66;95.11;99579.28;4919714;29;20483;-79
2021/09/19 02:40:43;;;;;;;3.85;2.10;;;;;;;15.69;93.73;99568.50;4919568;29;20040;-80
2021/09/19 02:43:10;;;;;;;8.93;6.75;;;;;;;15.68;95.28;99569.47;4919046;29;20036;-80
2021/09/19 02:45:37;;;;;;;6.90;4.70;;;;;;;15.82;93.99;99562.22;4918966;29;20562;-80
2021/09/19 02:48:04;;;;;;;5.43;3.72;;;;;;;15.61;95.43;99560.38;4919284;29;20044;-80
2021/09/19 02:50:31;;;;;;;4.90;2.80;;;;;;;15.51;97.57;99554.22;4918708;29;20040;-80
2021/09/19 02:52:58;;;;;;;5.93;3.60;;;;;;;15.59;97.94;99559.66;4918810;29;20036;-79
2021/09/19 02:55:24;;;;;;;5.90;5.07;;;;;;;15.61;96.80;99560.38;4918933;29;20095;-80
2021/09/19 02:57:51;;;;;;;8.02;4.93;;;;;;;15.71;94.48;99565.72;4919099;29;20048;-80
2021/09/19 03:00:20;;;;;;;6.93;4.45;;;;;;;15.77;92.98;99557.38;4919165;29;20074;-80
2021/09/19 03:02:49;;;;;;;6.35;4.13;;;;;;;15.69;92.51;99557.16;4919122;29;20091;-80
2021/09/19 03:05:17;;;;;;;4.95;3.10;;;;;;;15.75;91.63;99555.81;4918495;29;20047;-80
2021/09/19 03:07:44;;;;;;;7.25;3.60;;;;;;;15.75;92.87;99561.91;4918842;29;20044;-79
2021/09/19 03:10:13;;;;;;;7.07;3.40;;;;;;;15.74;91.65;99549.72;4918592;29;20048;-79
2021/09/19 03:12:40;;;;;;;8.07;3.97;;;;;;;15.58;92.86;99538.78;4918404;29;20047;-80
2021/09/19 03:15:08;;;;;;;7.72;3.53;;;;;;;15.63;92.74;99540.09;4918542;29;20104;-79
2021/09/19 03:17:34;;;;;;;6.78;2.53;;;;;;;15.61;91.29;99539.38;4918257;29;20048;-79
2021/09/19 03:20:04;;;;;;;2.90;2.33;;;;;;;15.65;89.33;99535.53;4918872;29;20119;-80
2021/09/19 03:22:30;;;;;;;1.83;1.70;;;;;;;15.71;88.15;99524.56;4918138;29;20044;-81
2021/09/19 03:24:57;;;;;;;3.28;2.05;;;;;;;15.76;87.78;99525.94;4918342;29;20076;-80
2021/09/19 03:27:24;;;;;;;9.90;3.15;;;;;;;15.64;88.98;99523.38;4917995;29;20059;-81
2021/09/19 03:29:51;;;;;;;7.22;2.03;;;;;;;15.60;89.63;99523.72;4918691;29;20072;-80
2021/09/19 03:32:18;;;;;;;3.53;1.95;;;;;;;15.52;89.39;99519.09;4918165;29;20056;-79
2021/09/19 03:34:47;;;;;;;5.88;2.05;;;;;;;15.54;89.85;99519.81;4918337;29;20052;-79
2021/09/19 03:37:14;;;;;;;3.60;2.63;;;;;;;15.58;89.83;99515.13;4918407;29;20075;-79
2021/09/19 03:39:41;;;;;;;4.15;2.45;;;;;;;15.56;90.14;99515.28;4917541;29;20468;-79
2021/09/19 03:42:08;;;;;;;5.28;2.17;;;;;;;15.51;91.13;99522.69;4918140;29;20092;-78
2021/09/19 03:44:35;;;;;;;6.30;4.65;;;;;;;15.82;90.79;99510.53;4917653;29;20484;-79
2021/09/19 03:47:02;;;;;;;4.25;3.70;;;;;;;15.92;89.80;99514.03;4917619;29;20131;-80
2021/09/19 03:49:30;;;;;;;7.30;3.30;;;;;;;15.79;91.07;99512.56;4917483;29;20040;-79
2021/09/19 03:51:57;;;;;;;5.72;3.30;;;;;;;15.76;91.02;99516.25;4918092;29;20115;-79
2021/09/19 03:54:24;;;;;;;7.82;3.85;;;;;;;15.53;92.48;99522.56;4917336;29;20071;-79
2021/09/19 03:56:51;;;;;;;8.07;2.47;;;;;;;15.43;93.48;99520.69;4917173;29;20055;-81
2021/09/19 03:59:17;;;;;;;8.15;2.97;;;;;;;15.42;94.03;99519.03;4917884;29;20032;-80
2021/09/19 04:01:44;;;;;;;5.53;3.53;;;;;;;15.45;91.98;99529.28;4917286;29;20048;-80
2021/09/19 04:04:11;;;;;;;6.93;2.53;;;;;;;15.48;89.68;99536.06;4917821;29;20052;-80
2021/09/19 04:06:38;;;;;;;4.43;2.00;;;;;;;15.54;86.77;99543.44;4917464;29;20096;-80
2021/09/19 04:09:05;;;;;;;4.10;2.15;;;;;;;15.56;86.02;99538.91;4915254;29;20499;-78
2021/09/19 04:11:31;;;;;;;2.83;1.73;;;;;;;15.54;87.09;99548.69;4917323;29;20044;-80
2021/09/19 04:13:58;;;;;;;5.75;2.40;;;;;;;15.52;88.24;99557.66;4917629;29;20044;-80
2021/09/19 04:16:25;;;;;;;3.10;2.80;;;;;;;15.39;92.71;99570.94;4917137;29;20119;-80
2021/09/19 04:18:51;;;;;;;8.95;6.30;;;;;;;15.16;97.38;99570.16;4917501;29;20047;-80
2021/09/19 04:21:18;;;;;;;13.07;6.68;;;;;;;15.01;100.00;99572.22;4917174;29;20111;-81
2021/09/19 04:23:45;;;;;;;14.13;7.43;;;;;;;14.91;100.00;99571.25;4917516;29;20116;-81
2021/09/19 04:26:12;;;;;;;9.15;7.70;;;;;;;14.84;100.00;99575.34;4917140;29;20051;-81
2021/09/19 04:28:38;;;;;;;13.10;7.65;;;;;;;15.04;100.00;99565.91;4917160;29;20072;-87
2021/09/19 04:31:05;;;;;;;8.65;7.28;;;;;;;14.95;100.00;99564.84;4917993;29;20050;-88
2021/09/19 04:33:32;;;;;;;10.68;6.80;;;;;;;15.01;100.00;99564.34;4918169;29;20047;-89
2021/09/19 04:35:59;;;;;;;8.73;5.63;;;;;;;15.09;100.00;99569.00;4917897;29;20075;-89
2021/09/19 04:38:25;;;;;;;11.32;4.65;;;;;;;15.11;100.00;99567.91;4908582;29;20827;-89
2021/09/19 04:40:53;;;;;;;8.88;4.20;;;;;;;15.15;99.71;99584.25;4914412;29;20048;-90
2021/09/19 04:43:20;;;;;;;3.90;3.33;;;;;;;14.97;100.00;99576.06;4917119;29;20044;-89
2021/09/19 04:45:46;;;;;;;9.55;3.55;;;;;;;14.93;99.53;99575.47;4916893;29;20048;-85
2021/09/19 04:48:13;;;;;;;16.33;4.78;;;;;;;15.09;100.00;99588.22;4916836;29;20115;-85
2021/09/19 04:50:40;;;;;;;11.52;5.18;;;;;;;14.99;100.00;99582.00;4916990;29;20131;-85
2021/09/19 04:53:07;;;;;;;5.25;4.53;;;;;;;14.77;100.00;99576.78;4916642;29;20040;-85
2021/09/19 04:55:35;;;;;;;5.38;4.82;;;;;;;14.65;100.00;99576.78;4916499;29;20080;-85
2021/09/19 04:58:02;;;;;;;14.00;4.70;;;;;;;14.79;100.00;99572.25;4916745;29;20044;-85
2021/09/19 05:00:29;;;;;;;9.88;5.30;;;;;;;14.87;100.00;99569.88;4916868;29;20039;-86
2021/09/19 05:02:55;;;;;;;9.43;3.97;;;;;;;14.73;100.00;99570.94;4918386;29;20052;-86
2021/09/19 05:05:23;;;;;;;7.90;4.95;;;;;;;14.80;100.00;99564.25;4918239;29;20099;-87
2021/09/19 05:07:49;;;;;;;10.02;6.93;;;;;;;14.67;100.00;99561.75;4917905;29;20452;-86
2021/09/19 05:10:16;;;;;;;9.05;6.55;;;;;;;14.94;100.00;99563.16;4917392;29;20040;-86
2021/09/19 05:12:43;;;;;;;11.68;6.60;;;;;;;15.04;100.00;99566.72;4917780;29;20048;-86
2021/09/19 05:15:10;;;;;;;14.73;6.63;;;;;;;15.02;100.00;99568.66;4917041;29;20040;-84
2021/09/19 05:17:37;;;;;;;9.27;7.15;;;;;;;15.25;100.00;99573.88;4916187;29;20055;-85
2021/09/19 05:20:05;;;;;;;10.60;6.45;;;;;;;15.48;98.05;99574.63;4918609;29;20083;-86
2021/09/19 05:22:32;;;;;;;11.70;7.32;;;;;;;15.69;95.53;99571.13;4916875;29;20044;-86
2021/09/19 05:24:59;;;;;;;9.30;7.28;;;;;;;15.90;92.36;99559.81;4916946;29;20464;-86
2021/09/19 05:27:26;;;;;;;10.68;6.72;;;;;;;16.09;90.63;99557.31;4916720;29;20052;-86
2021/09/19 05:29:52;;;;;;;9.15;7.80;;;;;;;16.58;87.32;99555.78;4917395;29;20040;-87
2021/09/19 05:32:21;;;;;;;15.00;8.35;;;;;;;16.82;85.82;99549.38;4916802;29;20075;-86
2021/09/19 05:34:49;;;;;;;9.07;8.18;;;;;;;16.95;84.64;99556.09;4917198;29;20078;-88
2021/09/19 05:37:16;;;;;;;14.40;9.85;;;;;;;16.97;84.33;99559.41;4917138;29;20051;-86
2021/09/19 05:39:43;;;;;;;28.33;11.38;;;;;;;17.21;82.51;99566.97;4919320;29;20044;-86
2021/09/19 05:42:10;;;;;;;12.05;10.30;;;;;;;17.39;79.62;99575.03;4924417;29;20074;-87
2021/09/19 05:44:39;;;;;;;10.45;9.05;;;;;;;17.87;78.93;99581.34;4916443;29;20040;-87
2021/09/19 05:47:06;;;;;;;11.60;9.30;;;;;;;18.04;79.45;99572.72;4917036;29;20076;-87
2021/09/19 05:49:32;;;;;;;9.75;6.35;;;;;;;18.15;75.38;99564.66;4917787;29;20069;-87
2021/09/19 05:51:59;;;;;;;9.73;5.35;;;;;;;18.30;76.44;99562.41;4919255;29;20070;-87
2021/09/19 05:54:26;;;;;;;8.50;6.22;;;;;;;18.67;76.19;99559.78;4919860;29;20060;-87
2021/09/19 05:56:53;;;;;;;4.63;4.05;;;;;;;18.76;72.74;99566.06;4920098;29;20571;-87
2021/09/19 05:59:21;;;;;;;3.65;3.30;;;;;;;18.81;72.30;99562.00;4910113;29;20096;-88
2021/09/19 06:01:48;;;;;;;4.22;3.70;;;;;;;19.00;71.67;99552.31;4914036;29;20054;-86
2021/09/19 06:04:14;;;;;;;12.93;4.10;;;;;;;19.10;70.84;99539.88;4915588;29;20032;-88
2021/09/19 06:06:41;;;;;;;6.55;4.72;;;;;;;18.99;72.21;99540.06;4914413;29;20111;-87
2021/09/19 06:09:08;;;;;;;11.65;6.43;;;;;;;19.21;72.52;99550.22;4915697;29;20517;-88
2021/09/19 06:11:35;;;;;;;9.73;7.30;;;;;;;19.37;73.92;99552.22;4916390;29;20044;-90
2021/09/19 06:14:02;;;;;;;13.30;8.43;;;;;;;19.38;74.95;99556.50;4912651;29;20036;-89
2021/09/19 06:16:28;;;;;;;10.07;8.07;;;;;;;19.50;75.43;99551.88;4911301;29;20040;-89
2021/09/19 06:18:55;;;;;;;12.07;9.85;;;;;;;19.52;76.01;99553.34;4912062;29;20046;-88
2021/09/19 06:21:22;;;;;;;11.90;9.90;;;;;;;19.51;77.59;99558.81;4912727;29;20499;-90
2021/09/19 06:23:48;;;;;;;20.48;12.95;;;;;;;19.61;80.58;99552.50;4915731;29;20072;-89
2021/09/19 06:26:15;;;;;;;17.23;13.00;;;;;;;19.55;80.90;99549.59;4920065;29;20140;-89
2021/09/19 06:28:42;;;;;;;18.75;14.80;;;;;;;19.42;81.27;99549.13;4913509;29;20047;-84
2021/09/19 06:31:09;;;;;;;16.13;13.25;;;;;;;19.46;80.73;99542.56;4914939;29;20033;-85
2021/09/19 06:33:36;;;;;;;16.73;13.55;;;;;;;19.38;80.37;99548.59;4914823;29;20141;-84
2021/09/19 06:36:03;;;;;;;20.73;15.95;;;;;;;19.51;79.58;99549.06;4916618;29;20058;-85
2021/09/19 06:38:30;;;;;;;19.15;17.10;;;;;;;19.67;78.57;99545.78;4908326;29;20041;-86
2021/09/19 06:40:57;;;;;;;26.85;19.23;;;;;;;20.15;76.39;99540.03;4917759;29;20052;-88
2021/09/19 06:43:24;;;;;;;23.17;17.40;;;;;;;20.20;75.63;99541.38;4916807;29;20107;-89
2021/09/19 06:45:51;;;;;;;26.70;20.58;;;;;;;19.76;76.37;99536.06;4915520;29;20051;-91
2021/09/19 06:48:18;;;;;;;28.55;20.67;;;;;;;19.52;78.72;99539.31;4910567;29;20064;-90
2021/09/19 06:50:47;;;;;;;25.23;18.85;;;;;;;19.85;77.42;99541.28;4910586;29;20526;-84
2021/09/19 06:53:14;;;;;;;23.65;19.77;;;;;;;19.90;76.40;99527.59;4910733;29;20056;-83
2021/09/19 06:55:41;;;;;;;22.67;17.20;;;;;;;20.05;75.79;99518.13;4907804;29;20107;-86
2021/09/19 06:58:08;;;;;;;22.55;17.60;;;;;;;20.06;75.43;99518.94;4905711;29;20063;-88
2021/09/19 07:00:34;;;;;;;24.85;16.75;;;;;;;19.94;74.09;99518.38;4909938;29;20513;-85
2021/09/19 07:03:02;;;;;;;16.63;14.90;;;;;;;20.06;73.10;99516.31;4905936;29;20516;-89
2021/09/19 07:05:29;;;;;;;16.17;12.55;;;;;;;19.98;73.78;99521.56;4908371;29;20040;-86
2021/09/19 07:07:57;;;;;;;12.80;11.35;;;;;;;20.21;73.11;99520.03;4914712;29;20048;-84
2021/09/19 07:10:23;;;;;;;12.93;11.63;;;;;;;20.40;71.48;99521.66;4907887;29;20041;-85
2021/09/19 07:12:50;;;;;;;11.55;10.32;;;;;;;20.56;70.54;99528.84;4916676;29;20052;-88
2021/09/19 07:15:17;;;;;;;11.95;10.77;;;;;;;20.88;69.57;99517.59;4915968;29;20440;-83
2021/09/19 07:17:44;;;;;;;11.10;9.88;;;;;;;20.99;67.70;99524.44;4907435;29;20504;-84
2021/09/19 07:20:11;;;;;;;10.90;8.48;;;;;;;21.40;65.62;99517.41;4903891;29;20045;-87
2021/09/19 07:22:40;;;;;;;10.02;8.98;;;;;;;21.56;63.08;99524.53;4904478;29;20047;-81
2021/09/19 07:25:09;;;;;;;8.60;7.35;;;;;;;21.09;63.92;99515.34;4905952;29;20036;-81
2021/09/19 07:27:36;;;;;;;9.07;8.18;;;;;;;21.11;65.23;99509.88;4905446;29;20053;-81
2021/09/19 07:30:04;;;;;;;11.85;8.00;;;;;;;20.84;64.71;99511.78;4907680;29;20041;-85
2021/09/19 07:32:32;;;;;;;14.52;8.50;;;;;;;20.80;65.08;99521.03;4909445;29;20131;-82
2021/09/19 07:34:59;;;;;;;17.75;9.10;;;;;;;20.36;67.02;99525.59;4904155;29;20036;-84
2021/09/19 07:37:26;;;;;;;14.07;8.00;;;;;;;19.97;67.53;99514.56;4915720;29;20044;-84
2021/09/19 07:39:53;;;;;;;9.98;7.85;;;;;;;19.81;67.83;99524.06;4910797;29;20088;-81
2021/09/19 07:42:20;;;;;;;8.50;7.60;;;;;;;20.01;68.41;99529.16;4915504;29;20047;-82
2021/09/19 07:44:47;;;;;;;8.43;7.50;;;;;;;19.71;68.79;99536.56;4910098;29;20069;-80
2021/09/19 07:47:14;;;;;;;10.57;7.78;;;;;;;19.71;69.37;99530.41;4915400;29;20054;-87
2021/09/19 07:49:43;;;;;;;10.73;8.32;;;;;;;19.53;69.40;99533.03;4909162;29;20404;-82
2021/09/19 07:52:11;;;;;;;11.75;8.27;;;;;;;19.53;69.87;99531.22;4899443;29;20412;-82
2021/09/19 07:54:38;;;;;;;10.23;8.77;;;;;;;19.34;71.59;99534.84;4907846;29;20056;-84
2021/09/19 07:57:05;;;;;;;8.82;6.80;;;;;;;19.63;71.08;99539.13;4909986;29;20044;-81
2021/09/19 07:59:33;;;;;;;8.20;7.40;;;;;;;19.75;71.03;99556.41;4916814;29;20048;-82
2021/09/19 08:02:00;;;;;;;7.35;6.10;;;;;;;19.72;71.19;99566.47;4922405;29;20044;-83
2021/09/19 08:04:27;;;;;;;6.63;5.97;;;;;;;19.40;73.08;99572.25;4919766;29;20051;-82
2021/09/19 08:06:56;;;;;;;5.80;5.13;;;;;;;19.67;71.88;99580.13;4925211;29;20055;-79
2021/09/19 08:09:23;;;;;;;6.95;5.30;;;;;;;19.78;70.77;99587.00;4895659;29;20051;-78
2021/09/19 08:11:49;;;;;;;5.75;4.20;;;;;;;19.99;70.55;99579.59;4911617;29;20056;-78
2021/09/19 08:14:16;;;;;;;6.88;4.10;;;;;;;20.13;70.08;99592.28;4915595;29;20051;-79
2021/09/19 08:16:43;;;;;;;5.40;3.85;;;;;;;19.92;72.69;99589.13;4910390;29;20561;-81
2021/09/19 08:19:10;;;;;;;4.32;3.65;;;;;;;19.96;72.36;99581.69;4906040;29;20043;-80
2021/09/19 08:21:37;;;;;;;3.38;3.08;;;;;;;19.67;73.97;99574.84;4906936;29;20527;-77
2021/09/19 08:24:06;;;;;;;10.40;4.22;;;;;;;19.74;74.96;99575.06;4908332;29;20112;-77
2021/09/19 08:26:34;;;;;;;5.70;3.85;;;;;;;19.60;75.11;99587.00;4910833;29;20056;-75
2021/09/19 08:29:01;;;;;;;6.50;3.97;;;;;;;19.92;75.77;99582.97;4910238;29;20220;-77
2021/09/19 08:31:28;;;;;;;4.47;3.72;;;;;;;19.74;78.57;99577.72;4911128;29;20044;-81
2021/09/19 08:33:55;;;;;;;4.38;2.90;;;;;;;19.52;79.29;99579.78;4910406;29;20060;-81
2021/09/19 08:36:24;;;;;;;4.15;2.50;;;;;;;19.55;78.46;99581.31;4904940;29;20472;-76
2021/09/19 08:38:52;;;;;;;3.78;2.60;;;;;;;19.68;76.16;99571.22;4898983;29;20462;-77
2021/09/19 08:41:22;;;;;;;8.63;4.05;;;;;;;19.84;77.58;99574.00;4898474;29;20045;-76
2021/09/19 08:43:50;;;;;;;3.70;2.95;;;;;;;19.95;76.65;99567.66;4902574;29;20115;-78
2021/09/19 08:46:20;;;;;;;5.88;2.88;;;;;;;20.04;76.19;99568.56;4905970;29;20773;-76
2021/09/19 08:48:47;;;;;;;3.45;2.65;;;;;;;19.84;77.58;99576.66;4908092;29;20135;-76
2021/09/19 08:51:14;;;;;;;3.95;2.60;;;;;;;20.08;77.29;99567.22;4909581;29;20048;-77
2021/09/19 08:53:45;;;;;;;5.88;3.00;;;;;;;20.34;75.52;99568.09;4913049;29;20075;-76
2021/09/19 08:56:11;;;;;;;2.63;2.10;;;;;;;20.85;72.33;99577.00;4908566;29;20079;-76
2021/09/19 08:58:38;;;;;;;2.33;2.13;;;;;;;21.41;69.48;99583.53;4908163;29;20049;-76
2021/09/19 09:01:06;;;;;;;4.38;2.30;;;;;;;21.53;70.14;99583.22;4909465;29;20045;-77
2021/09/19 09:03:33;;;;;;;3.08;1.88;;;;;;;21.86;67.49;99584.91;4906517;29;20161;-74
2021/09/19 09:06:06;;;;;;;2.40;2.20;;;;;;;22.38;66.12;99573.97;4913376;29;20036;-76
2021/09/19 09:08:34;;;;;;;2.58;2.10;;;;;;;23.29;64.40;99580.66;4913881;29;20048;-77
2021/09/19 09:11:05;;;;;;;2.38;2.17;;;;;;;23.56;62.77;99570.50;4913060;29;20107;-78
2021/09/19 09:13:37;;;;;;;3.45;1.75;;;;;;;23.62;62.20;99567.13;4915685;29;20044;-87
2021/09/19 09:16:17;;;;;;;5.28;2.40;;;;;;;23.29;65.08;99569.19;4912820;29;20083;-84
2021/09/19 09:18:52;;;;;;;2.10;2.00;;;;;;;23.17;65.47;99577.56;4909984;29;20388;-84
2021/09/19 09:21:20;;;;;;;2.47;2.28;;;;;;;23.37;64.91;99569.94;4912976;29;20511;-81
2021/09/19 09:23:51;;;;;;;4.97;2.00;;;;;;;22.75;64.91;99567.22;4922667;29;20039;-85
2021/09/19 09:26:19;;;;;;;3.05;2.15;;;;;;;22.58;66.34;99561.13;4914853;29;20423;-83
2021/09/19 09:29:07;;;;;;;3.08;2.22;;;;;;;22.45;67.22;99559.00;4911806;29;20056;-81
2021/09/19 09:31:46;;;;;;;4.82;3.22;;;;;;;22.17;69.06;99560.41;4899056;29;20055;-85
2021/09/19 09:34:17;;;;;;;3.65;2.42;;;;;;;22.10;67.85;99567.31;4913898;29;20052;-82
2021/09/19 09:37:01;;;;;;;5.25;2.85;;;;;;;22.70;69.17;99570.41;4910941;29;20353;-83
2021/09/19 09:39:38;;;;;;;2.58;2.38;;;;;;;22.83;69.55;99574.34;4906391;29;20040;-79
2021/09/19 09:42:10;;;;;;;3.80;2.95;;;;;;;22.64;70.40;99562.28;4906616;29;20045;-79
2021/09/19 09:44:50;;;;;;;3.90;3.53;;;;;;;22.92;69.46;99566.19;4911275;29;20052;-81
2021/09/19 09:47:28;;;;;;;3.58;2.38;;;;;;;23.15;68.56;99560.09;4914246;29;20071;-81
2021/09/19 09:50:00;;;;;;;3.85;2.25;;;;;;;22.86;69.02;99558.06;4911742;29;20115;-81
2021/09/19 09:52:31;;;;;;;5.05;2.60;;;;;;;22.46;71.73;99536.75;4913951;29;20138;-82
2021/09/19 09:55:12;;;;;;;2.55;2.30;;;;;;;22.65;71.08;99532.06;4916957;29;20056;-82
2021/09/19 09:58:05;;;;;;;5.00;2.78;;;;;;;22.54;69.76;99527.97;4913369;29;20193;-81
2021/09/19 10:00:32;;;;;;;8.73;4.40;;;;;;;22.47;70.80;99516.34;4918878;29;20044;-82
2021/09/19 10:02:59;;;;;;;3.35;2.83;;;;;;;22.88;68.79;99525.00;4921848;29;20040;-82
2021/09/19 10:05:28;;;;;;;4.95;2.83;;;;;;;23.46;66.79;99518.34;4922259;29;20046;-82
2021/09/19 10:07:56;;;;;;;5.85;2.70;;;;;;;23.42;67.13;99506.41;4916019;29;20040;-81
2021/09/19 10:10:24;;;;;;;3.90;2.88;;;;;;;23.20;66.79;99501.91;4916041;29;20048;-82
2021/09/19 10:12:53;;;;;;;3.20;2.83;;;;;;;23.36;65.69;99501.81;4906819;29;20044;-95
2021/09/19 10:15:21;;;;;;;3.33;2.38;;;;;;;23.82;65.52;99499.16;4911303;29;20099;-87
2021/09/19 10:17:49;;;;;;;4.60;2.88;;;;;;;24.38;63.08;99494.28;4910942;29;20112;-79
2021/09/19 10:20:20;;;;;;;3.17;2.88;;;;;;;24.96;61.78;99497.88;4912269;29;20402;-85
2021/09/19 10:23:05;;;;;;;3.28;2.78;;;;;;;24.87;61.74;99491.00;4910627;29;20040;-92
2021/09/19 10:25:37;;;;;;;3.85;2.33;;;;;;;24.80;60.51;99472.28;4926561;29;20463;-88
2021/09/19 10:28:41;;;;;;;2.15;1.73;;;;;;;25.59;57.65;99471.47;4912764;29;20044;-86
2021/09/19 10:31:20;;;;;;;6.88;2.47;;;;;;;25.37;59.08;99470.66;4912019;29;20048;-82
2021/09/19 10:33:59;;;;;;;2.70;2.17;;;;;;;25.30;57.60;99462.59;4916845;29;20047;-83
2021/09/19 10:36:49;;;;;;;4.72;2.92;;;;;;;24.77;60.14;99463.84;4916998;29;20040;-82
2021/09/19 10:39:24;;;;;;;12.00;4.80;;;;;;;24.54;61.96;99459.44;4926130;29;20559;-86
2021/09/19 10:42:06;;;;;;;5.70;4.53;;;;;;;23.89;62.84;99449.50;4918529;29;20395;-88
2021/09/19 10:44:35;;;;;;;5.68;4.65;;;;;;;24.30;61.95;99441.09;4918183;29;20123;-90
2021/09/19 10:47:06;;;;;;;7.93;5.28;;;;;;;24.34;61.18;99436.19;4917324;29;20091;-82
2021/09/19 10:49:35;;;;;;;9.15;4.95;;;;;;;25.61;58.52;99432.88;4917270;29;20058;-85
2021/09/19 10:52:02;;;;;;;13.60;6.22;;;;;;;25.63;57.16;99416.69;4916136;29;20044;-89
2021/09/19 10:54:51;;;;;;;9.13;6.70;;;;;;;24.54;60.19;99414.16;4918316;29;20507;-91
2021/09/19 10:57:32;;;;;;;5.95;4.05;;;;;;;24.75;60.46;99408.03;4916681;29;20059;-89
2021/09/19 11:00:11;;;;;;;5.22;2.25;;;;;;;24.46;60.61;99413.47;4916211;29;20048;-89
2021/09/19 11:02:59;;;;;;;4.63;2.72;;;;;;;24.65;60.35;99412.03;4914476;29;20036;-89
2021/09/19 11:05:44;;;;;;;5.60;2.28;;;;;;;24.29;60.73;99418.13;4914395;29;20467;-87
2021/09/19 11:08:18;;;;;;;4.55;2.67;;;;;;;24.41;60.68;99421.19;4914294;29;20051;-89
2021/09/19 11:10:45;;;;;;;2.83;2.60;;;;;;;24.03;61.58;99418.59;4916474;29;20044;-88
2021/09/19 11:13:21;;;;;;;5.22;2.35;;;;;;;24.21;61.50;99413.72;4915605;29;20066;-92
2021/09/19 11:16:03;;;;;;;4.43;2.25;;;;;;;23.90;62.78;99413.91;4915835;29;20410;-88
2021/09/19 11:18:42;;;;;;;4.22;2.35;;;;;;;24.62;61.10;99410.56;4916073;29;20036;-86
2021/09/19 11:21:20;;;;;;;4.45;2.88;;;;;;;24.63;61.94;99403.41;4917070;29;20570;-85
2021/09/19 11:23:53;;;;;;;3.33;2.85;;;;;;;23.79;65.32;99409.03;4917662;29;20598;-86
2021/09/19 11:26:27;;;;;;;4.97;2.97;;;;;;;23.90;64.66;99403.25;4916276;29;20051;-90
2021/09/19 11:28:55;;;;;;;4.17;3.23;;;;;;;24.34;62.89;99389.09;4915723;29;20335;-87
2021/09/19 11:31:22;;;;;;;3.40;2.72;;;;;;;24.67;61.53;99388.69;4915484;29;20092;-86
2021/09/19 11:33:49;;;;;;;3.13;2.22;;;;;;;24.52;60.50;99383.41;4916777;29;20403;-87
2021/09/19 11:36:19;;;;;;;4.05;2.30;;;;;;;24.20;61.95;99384.63;4914161;29;20043;-88